createdAt,value
2019-02-06T00:00:28.488Z,2.15
2019-02-06T00:05:29.865Z,2.11
2019-02-06T00:10:31.233Z,2.09
2019-02-06T00:15:32.611Z,2.10
2019-02-06T00:20:33.994Z,1.87
2019-02-06T00:25:35.320Z,1.86
2019-02-06T00:30:37.561Z,1.85
2019-02-06T00:35:38.961Z,1.81
2019-02-06T00:40:41.019Z,1.79
2019-02-06T00:45:42.356Z,1.79
2019-02-06T00:50:43.723Z,1.75
2019-02-06T00:55:45.160Z,1.79
2019-02-06T01:00:46.577Z,1.70
2019-02-06T01:05:48.687Z,1.70
2019-02-06T01:10:50.046Z,1.67
2019-02-06T01:15:51.437Z,1.69
2019-02-06T01:20:52.812Z,1.74
2019-02-06T01:25:54.206Z,1.84
2019-02-06T01:30:55.545Z,1.78
2019-02-06T01:35:57.024Z,1.89
2019-02-06T01:40:58.379Z,1.85
2019-02-06T01:45:59.751Z,1.83
2019-02-06T01:51:01.100Z,1.81
2019-02-06T01:56:02.431Z,1.83
2019-02-06T02:01:03.902Z,1.80
2019-02-06T02:06:05.321Z,1.81
2019-02-06T02:11:06.661Z,1.73
2019-02-06T02:16:08.017Z,1.70
2019-02-06T02:21:09.414Z,1.62
2019-02-06T02:26:11.560Z,1.60
2019-02-06T02:31:12.950Z,1.57
2019-02-06T02:36:16.474Z,1.55
2019-02-06T02:41:16.523Z,1.55
2019-02-06T02:46:17.939Z,1.35
2019-02-06T02:51:19.419Z,1.42
2019-02-06T02:56:20.797Z,1.46
2019-02-06T03:01:28.991Z,1.34
2019-02-06T03:06:30.527Z,1.29
2019-02-06T03:11:31.836Z,1.38
2019-02-06T03:16:41.111Z,1.41
2019-02-06T03:21:47.600Z,1.29
2019-02-06T03:26:48.925Z,1.22
2019-02-06T03:31:50.286Z,1.27
2019-02-06T03:36:51.665Z,1.12
2019-02-06T03:41:52.999Z,1.16
2019-02-06T03:46:54.397Z,1.19
2019-02-06T03:51:55.780Z,1.31
2019-02-06T03:56:57.130Z,1.26
2019-02-06T04:01:58.513Z,1.12
2019-02-06T04:07:01.071Z,1.05
2019-02-06T04:12:02.959Z,1.08
2019-02-06T04:17:08.469Z,1.09
2019-02-06T04:22:09.829Z,1.01
2019-02-06T04:27:11.228Z,1.03
2019-02-06T04:32:12.564Z,1.05
2019-02-06T04:37:14.014Z,1.02
2019-02-06T04:42:15.372Z,0.89
2019-02-06T04:47:17.487Z,0.69
2019-02-06T04:52:18.945Z,0.64
2019-02-06T04:57:20.387Z,0.66
2019-02-06T05:02:22.538Z,0.70
2019-02-06T05:07:24.699Z,0.68
2019-02-06T05:12:26.049Z,0.70
2019-02-06T05:17:27.593Z,0.53
2019-02-06T05:22:29.669Z,0.47
2019-02-06T05:27:31.828Z,0.40
2019-02-06T05:32:33.958Z,0.35
2019-02-06T05:37:35.330Z,0.31
2019-02-06T05:42:36.787Z,0.30
2019-02-06T05:47:38.325Z,0.27
2019-02-06T05:52:39.744Z,0.35
2019-02-06T05:57:41.106Z,0.32
2019-02-06T06:02:42.477Z,0.22
2019-02-06T06:07:45.501Z,0.10
2019-02-06T06:12:46.103Z,-0.12
2019-02-06T06:17:47.478Z,-0.18
2019-02-06T06:22:48.908Z,-0.16
2019-02-06T06:27:50.255Z,-0.39
2019-02-06T06:32:51.608Z,-0.37
2019-02-06T06:37:59.799Z,-0.38
2019-02-06T06:42:54.613Z,-0.22
2019-02-06T06:47:55.965Z,-0.28
2019-02-06T06:52:58.371Z,-0.20
2019-02-06T06:57:59.840Z,-0.06
2019-02-06T07:03:01.124Z,-0.09
2019-02-06T07:08:09.595Z,-0.02
2019-02-06T07:13:03.923Z,0.00
2019-02-06T07:18:05.251Z,0.10
2019-02-06T07:23:07.331Z,0.22
2019-02-06T07:28:09.408Z,0.36
2019-02-06T07:33:11.596Z,0.41
2019-02-06T07:38:23.579Z,0.37
2019-02-06T07:43:14.351Z,0.43
2019-02-06T07:48:18.935Z,0.49
2019-02-06T07:53:27.844Z,0.53
2019-02-06T07:58:29.163Z,0.50
2019-02-06T08:03:30.662Z,0.52
2019-02-06T08:08:36.161Z,0.47
2019-02-06T08:13:33.252Z,0.47
2019-02-06T08:18:34.582Z,0.57
2019-02-06T08:23:35.907Z,0.82
2019-02-06T08:28:37.231Z,1.09
2019-02-06T08:33:38.566Z,1.18
2019-02-06T08:38:47.421Z,1.26
2019-02-06T08:43:41.256Z,1.54
2019-02-06T08:48:42.572Z,1.61
2019-02-06T08:53:43.889Z,1.65
2019-02-06T08:58:45.235Z,1.70
2019-02-06T09:03:46.559Z,1.77
2019-02-06T09:08:58.979Z,2.01
2019-02-06T09:13:50.031Z,2.10
2019-02-06T09:18:52.110Z,2.23
2019-02-06T09:23:53.466Z,1.90
2019-02-06T09:28:54.813Z,2.08
2019-02-06T09:33:56.122Z,2.40
2019-02-06T09:38:57.394Z,2.33
2019-02-06T09:43:58.686Z,2.65
2019-02-06T09:49:00.037Z,2.68
2019-02-06T09:54:01.383Z,2.82
2019-02-06T09:59:02.744Z,2.92
2019-02-06T10:04:04.056Z,2.88
2019-02-06T10:09:05.400Z,2.96
2019-02-06T10:14:06.753Z,2.63
2019-02-06T10:19:08.086Z,2.91
2019-02-06T10:24:10.105Z,3.04
2019-02-06T10:29:11.387Z,3.02
2019-02-06T10:34:12.728Z,3.22
2019-02-06T10:39:14.136Z,3.09
2019-02-06T10:44:15.510Z,2.95
2019-02-06T10:49:16.872Z,3.22
2019-02-06T10:54:18.163Z,3.36
2019-02-06T10:59:19.517Z,3.40
2019-02-06T11:04:20.914Z,2.56
2019-02-06T11:09:22.218Z,2.62
2019-02-06T11:14:23.551Z,2.39
2019-02-06T11:19:24.906Z,2.69
2019-02-06T11:24:26.879Z,2.86
2019-02-06T11:29:27.561Z,2.25
2019-02-06T11:34:28.965Z,2.55
2019-02-06T11:39:30.268Z,2.76
2019-02-06T11:44:31.628Z,3.13
2019-02-06T11:49:32.920Z,2.94
2019-02-06T11:54:34.221Z,2.95
2019-02-06T11:59:35.560Z,3.45
2019-02-06T12:04:36.919Z,4.08
2019-02-06T12:09:38.989Z,3.98
2019-02-06T12:14:40.392Z,3.56
2019-02-06T12:19:41.803Z,3.43
2019-02-06T12:24:43.049Z,3.44
2019-02-06T12:29:44.393Z,3.98
2019-02-06T12:34:46.595Z,3.92
2019-02-06T12:39:47.969Z,3.71
2019-02-06T12:44:49.295Z,3.14
2019-02-06T12:49:50.953Z,3.51
2019-02-06T12:54:53.033Z,3.53
2019-02-06T12:59:54.349Z,4.26
2019-02-06T13:04:55.695Z,3.50
2019-02-06T13:09:57.013Z,3.60
2019-02-06T13:14:58.348Z,3.92
2019-02-06T13:19:59.660Z,4.97
2019-02-06T13:25:00.993Z,5.66
2019-02-06T13:30:02.321Z,6.18
2019-02-06T13:35:03.633Z,6.16
2019-02-06T13:40:06.674Z,7.09
2019-02-06T13:45:08.822Z,7.17
2019-02-06T13:50:21.293Z,6.69
2019-02-06T13:55:14.595Z,7.13
2019-02-06T14:00:26.936Z,6.85
2019-02-06T14:05:28.227Z,6.12
2019-02-06T14:10:29.568Z,6.33
2019-02-06T14:15:32.463Z,6.86
2019-02-06T14:20:33.812Z,6.77
2019-02-06T14:25:46.885Z,7.41
2019-02-06T14:37:03.363Z,6.34
2019-02-06T14:42:13.451Z,6.45
2019-02-06T14:47:36.571Z,7.03
2019-02-06T14:59:07.131Z,6.01
2019-02-06T15:10:14.617Z,5.59
2019-02-06T15:21:13.511Z,5.31
2019-02-06T15:26:21.857Z,5.30
2019-02-06T15:31:38.951Z,5.42
2019-02-06T15:42:43.308Z,5.11
2019-02-06T15:48:18.019Z,4.94
2019-02-06T15:53:23.624Z,4.95
2019-02-06T15:58:32.561Z,4.71
2019-02-06T16:09:21.988Z,4.16
2019-02-06T16:14:47.203Z,4.02
2019-02-06T16:20:15.533Z,3.77
2019-02-06T16:25:24.507Z,3.60
2019-02-06T16:30:40.705Z,3.54
2019-02-06T16:41:40.628Z,3.30
2019-02-06T16:52:45.085Z,3.12
2019-02-06T17:09:39.470Z,3.06
2019-02-06T17:14:44.740Z,2.98
2019-02-06T17:31:43.514Z,2.86
2019-02-06T17:36:47.955Z,2.87
2019-02-06T17:48:36.738Z,2.72
2019-02-06T17:53:50.217Z,2.63
2019-02-06T17:58:51.564Z,2.49
2019-02-06T18:03:55.503Z,2.47
2019-02-06T18:08:57.954Z,2.32
2019-02-06T18:14:00.538Z,2.38
2019-02-06T18:19:02.119Z,2.33
2019-02-06T18:24:05.513Z,2.29
2019-02-06T18:29:07.651Z,2.14
2019-02-06T18:34:09.036Z,2.23
2019-02-06T18:39:10.742Z,2.29
2019-02-06T18:44:12.355Z,2.21
2019-02-06T18:49:13.716Z,2.21
2019-02-06T18:54:15.082Z,2.19
2019-02-06T18:59:17.643Z,2.15
2019-02-06T19:04:19.044Z,2.21
2019-02-06T19:09:20.402Z,2.07
2019-02-06T19:14:22.084Z,2.08
2019-02-06T19:19:25.474Z,2.11
2019-02-06T19:24:24.736Z,1.95
2019-02-06T19:29:26.793Z,2.03
2019-02-06T19:34:28.125Z,2.01
2019-02-06T19:39:29.484Z,1.96
2019-02-06T19:44:30.925Z,1.98
2019-02-06T19:49:32.257Z,1.94
2019-02-06T19:54:33.618Z,2.02
2019-02-06T19:59:34.973Z,1.82
2019-02-06T20:04:36.283Z,1.93
2019-02-06T20:09:38.189Z,1.90
2019-02-06T20:14:43.261Z,1.94
2019-02-06T20:19:45.983Z,2.12
2019-02-06T20:24:48.489Z,1.97
2019-02-06T20:29:50.698Z,1.78
2019-02-06T20:34:56.613Z,1.76
2019-02-06T20:39:58.783Z,1.72
2019-02-06T20:45:01.240Z,1.72
2019-02-06T20:50:02.582Z,1.66
2019-02-06T20:55:04.671Z,1.66
2019-02-06T21:00:11.942Z,1.56
2019-02-06T21:05:13.456Z,1.61
2019-02-06T21:10:25.278Z,1.49
2019-02-06T21:15:26.658Z,1.29
2019-02-06T21:20:28.016Z,1.19
2019-02-06T21:25:29.449Z,1.32
2019-02-06T21:30:33.686Z,1.41
2019-02-06T21:35:35.756Z,1.46
2019-02-06T21:40:42.764Z,1.51
2019-02-06T21:45:47.933Z,1.58
2019-02-06T21:50:50.258Z,1.65
2019-02-06T22:01:07.013Z,1.39
2019-02-06T22:06:18.259Z,1.30
2019-02-06T22:11:22.973Z,1.20
2019-02-06T22:16:26.373Z,1.35
2019-02-06T22:21:36.434Z,1.27
2019-02-06T22:26:49.330Z,1.36
2019-02-06T22:31:55.423Z,1.42
2019-02-06T22:37:01.935Z,1.43
2019-02-06T22:42:18.897Z,1.47
2019-02-06T22:47:23.251Z,1.49
2019-02-06T22:52:28.511Z,1.47
2019-02-06T22:57:33.627Z,1.19
2019-02-06T23:02:35.624Z,1.21
2019-02-06T23:12:55.641Z,1.34
2019-02-06T23:18:03.108Z,1.34
2019-02-06T23:23:08.373Z,1.35
2019-02-06T23:28:09.675Z,1.30
2019-02-06T23:33:11.001Z,1.32
2019-02-06T23:38:12.340Z,1.30
2019-02-06T23:43:13.665Z,1.07
2019-02-06T23:48:15.067Z,1.11
2019-02-06T23:53:16.432Z,1.03
2019-02-06T23:58:17.993Z,1.05
